sensor_id;sensor_type;location;lat;lon;timestamp;pressure;altitude;pressure_sealevel;temperature;humidity
54666;BME280;40566;50.006;36.180;2023-05-03T00:01:29;100751.19;;;7.47;58.76
54666;BME280;40566;50.006;36.180;2023-05-03T00:06:30;100760.63;;;7.45;58.76
54666;BME280;40566;50.006;36.180;2023-05-03T00:11:30;100770.94;;;7.52;58.79
54666;BME280;40566;50.006;36.180;2023-05-03T00:16:31;100768.34;;;7.52;58.71
54666;BME280;40566;50.006;36.180;2023-05-03T00:21:32;100761.44;;;7.38;58.77
54666;BME280;40566;50.006;36.180;2023-05-03T00:26:32;100758.00;;;7.29;58.81
54666;BME280;40566;50.006;36.180;2023-05-03T00:31:33;100770.88;;;7.35;58.94
54666;BME280;40566;50.006;36.180;2023-05-03T00:36:33;100762.28;;;7.23;58.92
54666;BME280;40566;50.006;36.180;2023-05-03T00:41:34;100773.44;;;7.29;59.27
54666;BME280;40566;50.006;36.180;2023-05-03T00:46:35;100773.41;;;7.15;59.19
54666;BME280;40566;50.006;36.180;2023-05-03T00:51:36;100778.53;;;7.12;59.15
54666;BME280;40566;50.006;36.180;2023-05-03T00:56:37;100764.81;;;7.07;59.12
54666;BME280;40566;50.006;36.180;2023-05-03T01:01:39;100775.13;;;7.17;59.42
54666;BME280;40566;50.006;36.180;2023-05-03T01:06:44;100766.53;;;7.05;59.45
54666;BME280;40566;50.006;36.180;2023-05-03T01:17:12;100780.22;;;7.09;59.69
54666;BME280;40566;50.006;36.180;2023-05-03T01:27:45;100792.25;;;7.05;60.05
54666;BME280;40566;50.006;36.180;2023-05-03T01:37:48;100799.94;;;6.99;60.14
54666;BME280;40566;50.006;36.180;2023-05-03T01:42:51;100802.47;;;6.90;60.11
54666;BME280;40566;50.006;36.180;2023-05-03T01:47:51;100799.88;;;6.82;60.00
54666;BME280;40566;50.006;36.180;2023-05-03T01:52:52;100801.56;;;6.80;60.01
54666;BME280;40566;50.006;36.180;2023-05-03T01:57:53;100814.47;;;6.88;60.21
54666;BME280;40566;50.006;36.180;2023-05-03T02:02:53;100801.53;;;6.72;60.10
54666;BME280;40566;50.006;36.180;2023-05-03T02:07:54;100804.94;;;6.67;60.14
54666;BME280;40566;50.006;36.180;2023-05-03T02:12:54;100798.91;;;6.63;60.20
54666;BME280;40566;50.006;36.180;2023-05-03T02:17:55;100820.41;;;6.74;60.93
54666;BME280;40566;50.006;36.180;2023-05-03T02:22:57;100807.47;;;6.65;60.59
54666;BME280;40566;50.006;36.180;2023-05-03T02:27:58;100818.69;;;6.72;61.13
54666;BME280;40566;50.006;36.180;2023-05-03T02:32:59;100815.19;;;6.62;61.08
54666;BME280;40566;50.006;36.180;2023-05-03T02:37:59;100810.06;;;6.65;61.05
54666;BME280;40566;50.006;36.180;2023-05-03T02:43:00;100816.94;;;6.66;60.95
54666;BME280;40566;50.006;36.180;2023-05-03T02:48:02;100810.97;;;6.73;61.04
54666;BME280;40566;50.006;36.180;2023-05-03T02:53:02;100820.44;;;6.78;60.87
54666;BME280;40566;50.006;36.180;2023-05-03T02:58:03;100836.78;;;6.95;61.58
54666;BME280;40566;50.006;36.180;2023-05-03T03:03:04;100842.84;;;7.06;61.73
54666;BME280;40566;50.006;36.180;2023-05-03T03:08:04;100823.97;;;7.06;61.07
54666;BME280;40566;50.006;36.180;2023-05-03T03:13:05;100852.38;;;7.27;61.66
54666;BME280;40566;50.006;36.180;2023-05-03T03:18:05;100850.69;;;7.40;61.53
54666;BME280;40566;50.006;36.180;2023-05-03T03:23:06;100836.97;;;7.46;61.33
54666;BME280;40566;50.006;36.180;2023-05-03T03:28:07;100833.56;;;7.59;61.24
54666;BME280;40566;50.006;36.180;2023-05-03T03:33:07;100847.31;;;7.80;61.15
54666;BME280;40566;50.006;36.180;2023-05-03T03:38:08;100849.06;;;7.91;60.99
54666;BME280;40566;50.006;36.180;2023-05-03T03:43:08;100850.81;;;8.06;60.42
54666;BME280;40566;50.006;36.180;2023-05-03T03:48:09;100849.94;;;8.17;60.51
54666;BME280;40566;50.006;36.180;2023-05-03T03:53:10;100859.38;;;8.33;59.81
54666;BME280;40566;50.006;36.180;2023-05-03T03:58:11;100851.69;;;8.45;59.32
54666;BME280;40566;50.006;36.180;2023-05-03T04:03:11;100860.25;;;8.61;59.00
54666;BME280;40566;50.006;36.180;2023-05-03T04:08:12;100853.34;;;8.77;58.70
54666;BME280;40566;50.006;36.180;2023-05-03T04:13:12;100855.00;;;8.93;57.51
54666;BME280;40566;50.006;36.180;2023-05-03T04:18:13;100859.28;;;9.08;56.74
54666;BME280;40566;50.006;36.180;2023-05-03T04:23:14;100864.38;;;9.22;56.33
54666;BME280;40566;50.006;36.180;2023-05-03T04:28:14;100855.69;;;9.39;55.83
54666;BME280;40566;50.006;36.180;2023-05-03T04:33:15;100867.63;;;9.60;55.58
54666;BME280;40566;50.006;36.180;2023-05-03T04:38:16;100866.66;;;9.75;55.16
54666;BME280;40566;50.006;36.180;2023-05-03T04:43:17;100864.00;;;9.87;54.52
54666;BME280;40566;50.006;36.180;2023-05-03T04:48:18;100865.63;;;10.00;54.18
54666;BME280;40566;50.006;36.180;2023-05-03T04:53:18;100874.16;;;10.13;53.73
54666;BME280;40566;50.006;36.180;2023-05-03T04:58:19;100875.75;;;10.32;53.50
54666;BME280;40566;50.006;36.180;2023-05-03T05:03:19;100875.63;;;10.46;52.88
54666;BME280;40566;50.006;36.180;2023-05-03T05:08:20;100878.06;;;10.63;52.44
54666;BME280;40566;50.006;36.180;2023-05-03T05:13:20;100872.69;;;10.82;52.00
54666;BME280;40566;50.006;36.180;2023-05-03T05:18:21;100871.53;;;11.07;51.50
54666;BME280;40566;50.006;36.180;2023-05-03T05:23:22;100884.25;;;11.27;50.75
54666;BME280;40566;50.006;36.180;2023-05-03T05:28:22;100882.25;;;11.49;49.97
54666;BME280;40566;50.006;36.180;2023-05-03T05:33:23;100883.72;;;11.69;49.57
54666;BME280;40566;50.006;36.180;2023-05-03T05:38:23;100880.78;;;11.95;48.85
54666;BME280;40566;50.006;36.180;2023-05-03T05:43:24;100870.91;;;12.17;48.01
54666;BME280;40566;50.006;36.180;2023-05-03T05:48:25;100876.72;;;12.32;47.34
54666;BME280;40566;50.006;36.180;2023-05-03T05:53:25;100867.78;;;12.49;47.01
54666;BME280;40566;50.006;36.180;2023-05-03T05:58:26;100874.44;;;12.64;46.39
54666;BME280;40566;50.006;36.180;2023-05-03T06:03:26;100862.88;;;12.81;46.19
54666;BME280;40566;50.006;36.180;2023-05-03T06:08:27;100867.59;;;13.05;45.41
54666;BME280;40566;50.006;36.180;2023-05-03T06:13:28;100858.75;;;13.16;45.16
54666;BME280;40566;50.006;36.180;2023-05-03T06:18:28;100847.97;;;13.34;44.26
54666;BME280;40566;50.006;36.180;2023-05-03T06:23:29;100843.28;;;13.50;44.23
54666;BME280;40566;50.006;36.180;2023-05-03T06:28:30;100846.34;;;13.69;43.78
54666;BME280;40566;50.006;36.180;2023-05-03T06:33:30;100850.44;;;13.79;43.83
54666;BME280;40566;50.006;36.180;2023-05-03T06:38:31;100850.97;;;13.94;43.20
54666;BME280;40566;50.006;36.180;2023-05-03T06:43:31;100842.88;;;14.06;43.42
54666;BME280;40566;50.006;36.180;2023-05-03T06:48:32;100847.63;;;14.24;42.80
54666;BME280;40566;50.006;36.180;2023-05-03T06:53:32;100847.88;;;14.48;42.36
54666;BME280;40566;50.006;36.180;2023-05-03T06:58:33;100840.56;;;14.64;42.20
54666;BME280;40566;50.006;36.180;2023-05-03T07:03:34;100839.13;;;14.85;42.21
54666;BME280;40566;50.006;36.180;2023-05-03T07:08:34;100847.28;;;15.02;41.17
54666;BME280;40566;50.006;36.180;2023-05-03T07:13:35;100840.69;;;15.20;40.70
54666;BME280;40566;50.006;36.180;2023-05-03T07:18:36;100837.56;;;15.39;40.70
54666;BME280;40566;50.006;36.180;2023-05-03T07:23:36;100825.66;;;15.58;40.22
54666;BME280;40566;50.006;36.180;2023-05-03T07:28:37;100826.91;;;15.75;39.83
54666;BME280;40566;50.006;36.180;2023-05-03T07:33:38;100830.03;;;15.86;39.05
54666;BME280;40566;50.006;36.180;2023-05-03T07:38:38;100825.25;;;15.99;39.05
54666;BME280;40566;50.006;36.180;2023-05-03T07:43:39;100829.81;;;16.19;38.51
54666;BME280;40566;50.006;36.180;2023-05-03T07:48:39;100834.50;;;16.34;38.19
54666;BME280;40566;50.006;36.180;2023-05-03T07:53:40;100836.47;;;16.53;38.27
54666;BME280;40566;50.006;36.180;2023-05-03T07:58:41;100830.19;;;16.58;38.01
54666;BME280;40566;50.006;36.180;2023-05-03T08:03:41;100835.31;;;16.61;37.99
54666;BME280;40566;50.006;36.180;2023-05-03T08:08:43;100820.69;;;16.81;37.85
54666;BME280;40566;50.006;36.180;2023-05-03T08:13:44;100817.47;;;16.98;37.89
54666;BME280;40566;50.006;36.180;2023-05-03T08:18:44;100819.91;;;17.26;37.41
54666;BME280;40566;50.006;36.180;2023-05-03T08:23:46;100813.28;;;17.39;36.56
54666;BME280;40566;50.006;36.180;2023-05-03T08:28:46;100826.69;;;17.54;36.13
54666;BME280;40566;50.006;36.180;2023-05-03T08:33:47;100817.56;;;17.64;36.58
54666;BME280;40566;50.006;36.180;2023-05-03T08:38:48;100795.59;;;17.68;35.69
54666;BME280;40566;50.006;36.180;2023-05-03T08:43:52;100787.22;;;17.80;35.77
54666;BME280;40566;50.006;36.180;2023-05-03T08:48:54;100771.03;;;17.93;35.54
54666;BME280;40566;50.006;36.180;2023-05-03T08:53:55;100791.72;;;17.99;34.49
54666;BME280;40566;50.006;36.180;2023-05-03T08:58:55;100782.72;;;18.06;34.26
54666;BME280;40566;50.006;36.180;2023-05-03T09:03:57;100781.13;;;18.22;34.17
54666;BME280;40566;50.006;36.180;2023-05-03T09:08:58;100777.84;;;18.38;34.33
54666;BME280;40566;50.006;36.180;2023-05-03T09:14:15;100763.59;;;18.64;34.15
54666;BME280;40566;50.006;36.180;2023-05-03T09:19:16;100765.28;;;18.86;33.96
54666;BME280;40566;50.006;36.180;2023-05-03T09:24:20;100756.63;;;19.02;34.26
54666;BME280;40566;50.006;36.180;2023-05-03T09:29:32;100725.75;;;19.27;33.71
54666;BME280;40566;50.006;36.180;2023-05-03T09:34:35;100740.72;;;19.61;33.33
54666;BME280;40566;50.006;36.180;2023-05-03T09:39:36;100731.41;;;19.90;33.54
54666;BME280;40566;50.006;36.180;2023-05-03T09:44:48;100723.38;;;20.93;31.78
54666;BME280;40566;50.006;36.180;2023-05-03T09:49:50;100728.59;;;21.71;29.94
54666;BME280;40566;50.006;36.180;2023-05-03T09:54:52;100714.94;;;22.09;29.91
54666;BME280;40566;50.006;36.180;2023-05-03T09:59:53;100724.03;;;22.34;30.21
54666;BME280;40566;50.006;36.180;2023-05-03T10:04:55;100712.44;;;23.34;29.28
54666;BME280;40566;50.006;36.180;2023-05-03T10:09:58;100719.69;;;23.98;28.44
54666;BME280;40566;50.006;36.180;2023-05-03T10:14:59;100709.00;;;23.19;29.28
54666;BME280;40566;50.006;36.180;2023-05-03T10:25:09;100710.56;;;23.09;29.24
54666;BME280;40566;50.006;36.180;2023-05-03T10:30:36;100710.81;;;22.63;30.13
54666;BME280;40566;50.006;36.180;2023-05-03T10:35:39;100705.97;;;22.84;29.73
54666;BME280;40566;50.006;36.180;2023-05-03T10:40:41;100699.31;;;25.23;26.50
54666;BME280;40566;50.006;36.180;2023-05-03T10:45:45;100707.28;;;26.28;25.45
54666;BME280;40566;50.006;36.180;2023-05-03T10:50:46;100696.22;;;26.11;26.07
54666;BME280;40566;50.006;36.180;2023-05-03T10:56:07;100686.53;;;24.93;27.84
54666;BME280;40566;50.006;36.180;2023-05-03T11:01:11;100687.53;;;23.78;28.45
54666;BME280;40566;50.006;36.180;2023-05-03T11:06:34;100679.63;;;22.96;29.14
54666;BME280;40566;50.006;36.180;2023-05-03T11:11:37;100670.09;;;23.08;28.98
54666;BME280;40566;50.006;36.180;2023-05-03T11:16:39;100672.63;;;22.27;29.63
54666;BME280;40566;50.006;36.180;2023-05-03T11:21:46;100680.84;;;21.92;30.04
54666;BME280;40566;50.006;36.180;2023-05-03T11:26:47;100674.47;;;22.10;29.93
54666;BME280;40566;50.006;36.180;2023-05-03T11:31:50;100650.00;;;22.78;29.07
54666;BME280;40566;50.006;36.180;2023-05-03T11:36:53;100651.50;;;25.49;26.07
54666;BME280;40566;50.006;36.180;2023-05-03T11:42:04;100651.13;;;26.00;25.70
54666;BME280;40566;50.006;36.180;2023-05-03T11:47:04;100650.09;;;25.67;25.44
54666;BME280;40566;50.006;36.180;2023-05-03T11:52:06;100647.91;;;24.41;27.02
54666;BME280;40566;50.006;36.180;2023-05-03T11:57:12;100638.72;;;23.44;27.93
54666;BME280;40566;50.006;36.180;2023-05-03T12:02:14;100636.13;;;23.56;28.12
54666;BME280;40566;50.006;36.180;2023-05-03T12:07:15;100641.41;;;24.94;26.71
54666;BME280;40566;50.006;36.180;2023-05-03T12:12:18;100625.59;;;27.93;23.61
54666;BME280;40566;50.006;36.180;2023-05-03T12:17:36;100624.84;;;26.31;25.28
54666;BME280;40566;50.006;36.180;2023-05-03T12:22:38;100633.41;;;24.46;27.61
54666;BME280;40566;50.006;36.180;2023-05-03T12:27:38;100632.31;;;23.61;28.13
54666;BME280;40566;50.006;36.180;2023-05-03T12:32:39;100620.66;;;23.38;28.35
54666;BME280;40566;50.006;36.180;2023-05-03T12:37:40;100621.09;;;23.57;27.72
54666;BME280;40566;50.006;36.180;2023-05-03T12:42:41;100616.63;;;23.19;28.01
54666;BME280;40566;50.006;36.180;2023-05-03T12:47:41;100610.00;;;23.26;28.07
54666;BME280;40566;50.006;36.180;2023-05-03T12:52:42;100615.69;;;23.46;27.62
54666;BME280;40566;50.006;36.180;2023-05-03T12:57:43;100598.09;;;23.06;27.93
54666;BME280;40566;50.006;36.180;2023-05-03T13:02:43;100599.53;;;22.97;28.17
54666;BME280;40566;50.006;36.180;2023-05-03T13:07:47;100590.03;;;22.95;28.20
54666;BME280;40566;50.006;36.180;2023-05-03T13:12:47;100588.66;;;22.89;27.98
54666;BME280;40566;50.006;36.180;2023-05-03T13:17:48;100590.06;;;22.68;28.06
54666;BME280;40566;50.006;36.180;2023-05-03T13:22:49;100586.00;;;22.35;28.85
54666;BME280;40566;50.006;36.180;2023-05-03T13:27:49;100592.97;;;21.93;29.05
54666;BME280;40566;50.006;36.180;2023-05-03T13:32:52;100593.34;;;21.58;29.45
54666;BME280;40566;50.006;36.180;2023-05-03T13:37:52;100589.47;;;21.49;29.51
54666;BME280;40566;50.006;36.180;2023-05-03T13:42:54;100579.47;;;21.40;29.68
54666;BME280;40566;50.006;36.180;2023-05-03T13:47:54;100582.53;;;21.32;30.28
54666;BME280;40566;50.006;36.180;2023-05-03T13:52:55;100579.53;;;21.38;29.99
54666;BME280;40566;50.006;36.180;2023-05-03T13:57:56;100576.28;;;21.35;30.22
54666;BME280;40566;50.006;36.180;2023-05-03T14:02:57;100575.31;;;21.22;30.21
54666;BME280;40566;50.006;36.180;2023-05-03T14:07:57;100573.88;;;21.16;30.43
54666;BME280;40566;50.006;36.180;2023-05-03T14:12:58;100575.75;;;21.14;30.39
54666;BME280;40566;50.006;36.180;2023-05-03T14:17:59;100565.34;;;20.96;29.98
54666;BME280;40566;50.006;36.180;2023-05-03T14:23:00;100554.78;;;20.82;30.07
54666;BME280;40566;50.006;36.180;2023-05-03T14:28:01;100563.19;;;20.73;30.15
54666;BME280;40566;50.006;36.180;2023-05-03T14:33:02;100561.28;;;20.60;30.58
54666;BME280;40566;50.006;36.180;2023-05-03T14:38:02;100554.81;;;20.50;30.39
54666;BME280;40566;50.006;36.180;2023-05-03T14:43:03;100555.50;;;20.38;30.30
54666;BME280;40566;50.006;36.180;2023-05-03T14:48:04;100553.66;;;20.24;30.17
54666;BME280;40566;50.006;36.180;2023-05-03T14:53:04;100556.00;;;20.13;30.63
54666;BME280;40566;50.006;36.180;2023-05-03T14:58:05;100553.94;;;20.02;30.82
54666;BME280;40566;50.006;36.180;2023-05-03T15:03:09;100542.69;;;20.00;31.20
54666;BME280;40566;50.006;36.180;2023-05-03T15:08:15;100536.84;;;19.95;31.11
54666;BME280;40566;50.006;36.180;2023-05-03T15:13:16;100553.94;;;19.86;31.36
54666;BME280;40566;50.006;36.180;2023-05-03T15:18:16;100547.22;;;19.80;31.50
54666;BME280;40566;50.006;36.180;2023-05-03T15:23:19;100548.25;;;19.78;31.37
54666;BME280;40566;50.006;36.180;2023-05-03T15:28:19;100543.94;;;19.77;31.36
54666;BME280;40566;50.006;36.180;2023-05-03T15:33:20;100544.16;;;19.72;31.59
54666;BME280;40566;50.006;36.180;2023-05-03T15:38:21;100551.25;;;19.70;31.76
54666;BME280;40566;50.006;36.180;2023-05-03T15:43:21;100544.63;;;19.63;31.93
54666;BME280;40566;50.006;36.180;2023-05-03T15:48:22;100552.91;;;19.55;31.99
54666;BME280;40566;50.006;36.180;2023-05-03T15:53:25;100542.03;;;19.46;32.32
54666;BME280;40566;50.006;36.180;2023-05-03T15:58:26;100547.06;;;19.33;32.58
54666;BME280;40566;50.006;36.180;2023-05-03T16:03:30;100549.41;;;19.21;32.36
54666;BME280;40566;50.006;36.180;2023-05-03T16:08:31;100551.72;;;19.10;32.82
54666;BME280;40566;50.006;36.180;2023-05-03T16:13:31;100555.94;;;18.95;33.40
54666;BME280;40566;50.006;36.180;2023-05-03T16:18:32;100558.25;;;18.84;33.39
54666;BME280;40566;50.006;36.180;2023-05-03T16:23:32;100556.19;;;18.72;33.35
54666;BME280;40566;50.006;36.180;2023-05-03T16:28:34;100552.56;;;18.57;33.80
54666;BME280;40566;50.006;36.180;2023-05-03T16:33:35;100561.31;;;18.38;33.98
54666;BME280;40566;50.006;36.180;2023-05-03T16:38:36;100560.38;;;18.20;34.66
54666;BME280;40566;50.006;36.180;2023-05-03T16:43:37;100569.84;;;18.04;35.20
54666;BME280;40566;50.006;36.180;2023-05-03T16:48:38;100576.78;;;17.86;35.90
54666;BME280;40566;50.006;36.180;2023-05-03T16:53:39;100579.31;;;17.67;36.37
54666;BME280;40566;50.006;36.180;2023-05-03T16:58:40;100579.84;;;17.55;36.20
54666;BME280;40566;50.006;36.180;2023-05-03T17:03:41;100592.63;;;17.42;36.78
54666;BME280;40566;50.006;36.180;2023-05-03T17:08:42;100580.13;;;17.28;37.17
54666;BME280;40566;50.006;36.180;2023-05-03T17:13:44;100591.09;;;17.16;37.89
54666;BME280;40566;50.006;36.180;2023-05-03T17:18:47;100584.78;;;16.99;38.33
54666;BME280;40566;50.006;36.180;2023-05-03T17:23:48;100594.03;;;16.86;38.29
54666;BME280;40566;50.006;36.180;2023-05-03T17:28:49;100591.25;;;16.69;38.84
54666;BME280;40566;50.006;36.180;2023-05-03T17:33:49;100587.47;;;16.54;39.26
54666;BME280;40566;50.006;36.180;2023-05-03T17:38:50;100589.63;;;16.42;40.04
54666;BME280;40566;50.006;36.180;2023-05-03T17:43:51;100598.84;;;16.29;39.99
54666;BME280;40566;50.006;36.180;2023-05-03T17:48:51;100596.63;;;16.18;39.90
54666;BME280;40566;50.006;36.180;2023-05-03T17:53:52;100591.88;;;16.06;40.43
54666;BME280;40566;50.006;36.180;2023-05-03T17:58:54;100587.97;;;15.94;40.63
54666;BME280;40566;50.006;36.180;2023-05-03T18:03:55;100596.28;;;15.80;40.81
54666;BME280;40566;50.006;36.180;2023-05-03T18:08:55;100598.50;;;15.66;41.44
54666;BME280;40566;50.006;36.180;2023-05-03T18:13:56;100598.81;;;15.57;41.61
54666;BME280;40566;50.006;36.180;2023-05-03T18:18:57;100595.66;;;15.47;41.87
54666;BME280;40566;50.006;36.180;2023-05-03T18:23:57;100597.78;;;15.36;42.54
54666;BME280;40566;50.006;36.180;2023-05-03T18:28:59;100582.59;;;15.22;43.07
54666;BME280;40566;50.006;36.180;2023-05-03T18:34:00;100593.53;;;15.06;43.32
54666;BME280;40566;50.006;36.180;2023-05-03T18:39:01;100590.44;;;14.95;43.45
54666;BME280;40566;50.006;36.180;2023-05-03T18:44:04;100589.78;;;14.88;43.74
54666;BME280;40566;50.006;36.180;2023-05-03T18:49:04;100595.22;;;14.81;44.39
54666;BME280;40566;50.006;36.180;2023-05-03T18:54:05;100597.22;;;14.73;45.32
54666;BME280;40566;50.006;36.180;2023-05-03T18:59:06;100595.78;;;14.64;45.35
54666;BME280;40566;50.006;36.180;2023-05-03T19:04:06;100596.06;;;14.53;45.60
54666;BME280;40566;50.006;36.180;2023-05-03T19:09:07;100593.63;;;14.47;46.05
54666;BME280;40566;50.006;36.180;2023-05-03T19:14:10;100598.84;;;14.47;46.45
54666;BME280;40566;50.006;36.180;2023-05-03T19:19:11;100592.97;;;14.40;46.23
54666;BME280;40566;50.006;36.180;2023-05-03T19:24:12;100589.72;;;14.34;46.33
54666;BME280;40566;50.006;36.180;2023-05-03T19:29:14;100591.78;;;14.22;46.23
54666;BME280;40566;50.006;36.180;2023-05-03T19:34:15;100602.19;;;14.22;47.00
54666;BME280;40566;50.006;36.180;2023-05-03T19:39:15;100606.63;;;14.19;47.71
54666;BME280;40566;50.006;36.180;2023-05-03T19:44:16;100603.34;;;14.12;47.32
54666;BME280;40566;50.006;36.180;2023-05-03T19:49:17;100603.41;;;14.11;47.37
54666;BME280;40566;50.006;36.180;2023-05-03T19:54:20;100601.00;;;14.03;47.78
54666;BME280;40566;50.006;36.180;2023-05-03T19:59:21;100610.69;;;13.98;48.38
54666;BME280;40566;50.006;36.180;2023-05-03T20:04:23;100600.44;;;13.92;49.29
54666;BME280;40566;50.006;36.180;2023-05-03T20:09:24;100610.97;;;13.88;48.76
54666;BME280;40566;50.006;36.180;2023-05-03T20:14:24;100601.47;;;13.86;49.14
54666;BME280;40566;50.006;36.180;2023-05-03T20:19:28;100612.81;;;13.83;48.88
54666;BME280;40566;50.006;36.180;2023-05-03T20:24:29;100606.06;;;13.76;49.00
54666;BME280;40566;50.006;36.180;2023-05-03T20:29:29;100613.06;;;13.74;48.79
54666;BME280;40566;50.006;36.180;2023-05-03T20:34:30;100606.31;;;13.68;49.21
54666;BME280;40566;50.006;36.180;2023-05-03T20:39:30;100608.09;;;13.66;49.08
54666;BME280;40566;50.006;36.180;2023-05-03T20:44:33;100603.81;;;13.64;49.03
54666;BME280;40566;50.006;36.180;2023-05-03T20:49:33;100608.31;;;13.57;49.25
54666;BME280;40566;50.006;36.180;2023-05-03T20:54:35;100596.34;;;13.52;49.16
54666;BME280;40566;50.006;36.180;2023-05-03T20:59:36;100599.13;;;13.44;49.25
54666;BME280;40566;50.006;36.180;2023-05-03T21:04:36;100602.56;;;13.44;49.20
54666;BME280;40566;50.006;36.180;2023-05-03T21:09:37;100600.94;;;13.40;49.51
54666;BME280;40566;50.006;36.180;2023-05-03T21:14:38;100595.09;;;13.32;49.79
54666;BME280;40566;50.006;36.180;2023-05-03T21:19:38;100593.47;;;13.26;49.82
54666;BME280;40566;50.006;36.180;2023-05-03T21:24:39;100592.69;;;13.23;49.70
54666;BME280;40566;50.006;36.180;2023-05-03T21:29:40;100593.72;;;13.17;50.10
54666;BME280;40566;50.006;36.180;2023-05-03T21:34:40;100589.38;;;13.18;50.06
54666;BME280;40566;50.006;36.180;2023-05-03T21:39:41;100585.97;;;13.16;50.30
54666;BME280;40566;50.006;36.180;2023-05-03T21:44:46;100571.34;;;13.12;50.15
54666;BME280;40566;50.006;36.180;2023-05-03T21:49:47;100580.13;;;13.06;50.29
54666;BME280;40566;50.006;36.180;2023-05-03T21:54:47;100579.34;;;13.02;50.43
54666;BME280;40566;50.006;36.180;2023-05-03T21:59:48;100584.59;;;12.99;50.38
54666;BME280;40566;50.006;36.180;2023-05-03T22:04:49;100577.75;;;12.97;50.69
54666;BME280;40566;50.006;36.180;2023-05-03T22:09:49;100567.47;;;12.94;50.68
54666;BME280;40566;50.006;36.180;2023-05-03T22:14:50;100574.44;;;12.92;50.85
54666;BME280;40566;50.006;36.180;2023-05-03T22:19:51;100572.88;;;12.84;51.10
54666;BME280;40566;50.006;36.180;2023-05-03T22:24:53;100566.91;;;12.79;51.42
54666;BME280;40566;50.006;36.180;2023-05-03T22:29:54;100567.84;;;12.77;51.76
54666;BME280;40566;50.006;36.180;2023-05-03T22:34:56;100564.59;;;12.68;51.99
54666;BME280;40566;50.006;36.180;2023-05-03T22:39:56;100562.06;;;12.65;51.94
54666;BME280;40566;50.006;36.180;2023-05-03T22:44:57;100555.22;;;12.61;51.98
54666;BME280;40566;50.006;36.180;2023-05-03T22:49:57;100557.91;;;12.58;52.23
54666;BME280;40566;50.006;36.180;2023-05-03T22:54:58;100561.41;;;12.56;52.38
54666;BME280;40566;50.006;36.180;2023-05-03T23:00:00;100553.63;;;12.56;52.62
54666;BME280;40566;50.006;36.180;2023-05-03T23:05:01;100561.41;;;12.56;52.54
54666;BME280;40566;50.006;36.180;2023-05-03T23:10:04;100544.13;;;12.56;52.55
54666;BME280;40566;50.006;36.180;2023-05-03T23:15:05;100553.53;;;12.60;52.59
54666;BME280;40566;50.006;36.180;2023-05-03T23:20:07;100544.81;;;12.63;52.52
54666;BME280;40566;50.006;36.180;2023-05-03T23:25:08;100552.44;;;12.69;52.36
54666;BME280;40566;50.006;36.180;2023-05-03T23:30:09;100543.81;;;12.68;52.47
54666;BME280;40566;50.006;36.180;2023-05-03T23:35:10;100545.66;;;12.63;52.74
54666;BME280;40566;50.006;36.180;2023-05-03T23:40:10;100543.19;;;12.59;52.87
54666;BME280;40566;50.006;36.180;2023-05-03T23:45:12;100544.13;;;12.56;52.95
54666;BME280;40566;50.006;36.180;2023-05-03T23:50:12;100548.53;;;12.51;53.04
54666;BME280;40566;50.006;36.180;2023-05-03T23:55:13;100547.06;;;12.41;53.29
